Time,TemperatureF,DewpointF,PressureIn,WindDirection,WindDirectionDegrees,WindSpeedMPH,WindSpeedGustMPH,Humidity,HourlyPrecipIn,Conditions,Clouds,dailyrainin,SoftwareType,DateUTC
2013-02-20 00:01:00,14.8,12.9,30.14,WNW,283,6.0,12.0,92,0.00,,---,0.00,VWS V14.01,2013-02-20 05:01:00,
2013-02-20 00:16:00,14.8,12.6,30.15,WNW,289,5.0,13.0,91,0.00,,---,0.00,VWS V14.01,2013-02-20 05:16:00,
2013-02-20 00:31:00,14.8,12.6,30.15,WNW,289,3.0,11.0,91,0.00,,---,0.00,VWS V14.01,2013-02-20 05:31:00,
2013-02-20 00:46:00,14.7,12.6,30.15,West,269,9.0,11.0,91,0.00,,---,0.00,VWS V14.01,2013-02-20 05:46:00,
2013-02-20 01:01:00,14.6,12.5,30.16,West,280,4.0,12.0,91,0.00,,---,0.00,VWS V14.01,2013-02-20 06:01:00,
2013-02-20 01:16:00,14.5,12.4,30.16,WNW,295,5.0,13.0,91,0.00,,---,0.00,VWS V14.01,2013-02-20 06:16:00,
2013-02-20 01:31:00,14.3,12.2,30.17,West,273,5.0,10.0,91,0.00,,---,0.00,VWS V14.01,2013-02-20 06:31:00,
2013-02-20 01:46:00,14.2,12.1,30.18,West,270,6.0,11.0,91,0.00,,---,0.00,VWS V14.01,2013-02-20 06:46:00,
2013-02-20 02:01:00,14.0,11.9,30.18,WNW,290,6.0,11.0,91,0.00,,---,0.00,VWS V14.01,2013-02-20 07:01:00,
2013-02-20 02:16:00,13.9,11.8,30.19,West,274,7.0,9.0,91,0.00,,---,0.00,VWS V14.01,2013-02-20 07:16:00,
2013-02-20 02:31:00,14.1,11.7,30.19,WNW,286,4.0,13.0,90,0.00,,---,0.00,VWS V14.01,2013-02-20 07:31:00,
2013-02-20 02:46:00,14.2,11.8,30.19,West,261,6.0,11.0,90,0.00,,---,0.00,VWS V14.01,2013-02-20 07:46:00,
2013-02-20 03:01:00,14.2,11.6,30.20,West,265,10.0,14.0,89,0.00,,---,0.00,VWS V14.01,2013-02-20 08:01:00,
2013-02-20 03:16:00,14.3,11.7,30.20,WNW,293,8.0,18.0,89,0.00,,---,0.00,VWS V14.01,2013-02-20 08:16:00,
2013-02-20 03:31:00,14.2,11.3,30.21,West,273,12.0,14.0,88,0.00,,---,0.00,VWS V14.01,2013-02-20 08:31:00,
2013-02-20 03:46:00,14.0,11.4,30.21,West,268,9.0,12.0,89,0.00,,---,0.00,VWS V14.01,2013-02-20 08:46:00,
2013-02-20 04:01:00,14.0,11.1,30.22,West,279,7.0,13.0,88,0.00,,---,0.00,VWS V14.01,2013-02-20 09:01:00,
2013-02-20 04:16:00,14.2,11.1,30.22,WNW,299,8.0,13.0,87,0.00,,---,0.00,VWS V14.01,2013-02-20 09:16:00,
2013-02-20 04:31:00,14.0,10.9,30.22,West,276,8.0,14.0,87,0.00,,---,0.00,VWS V14.01,2013-02-20 09:31:00,
2013-02-20 04:46:00,14.0,11.1,30.22,West,272,7.0,15.0,88,0.00,,---,0.00,VWS V14.01,2013-02-20 09:46:00,
2013-02-20 05:01:00,13.9,11.0,30.23,West,261,10.0,12.0,88,0.00,,---,0.00,VWS V14.01,2013-02-20 10:01:00,
2013-02-20 05:16:00,14.1,10.7,30.24,West,269,6.0,15.0,86,0.00,,---,0.00,VWS V14.01,2013-02-20 10:16:00,
2013-02-20 05:31:00,14.0,10.9,30.24,West,279,14.0,15.0,87,0.00,,---,0.00,VWS V14.01,2013-02-20 10:31:00,
2013-02-20 05:46:00,14.0,10.9,30.25,WNW,282,11.0,19.0,87,0.00,,---,0.00,VWS V14.01,2013-02-20 10:46:00,
2013-02-20 06:01:00,13.9,10.8,30.25,West,280,7.0,17.0,87,0.00,,---,0.00,VWS V14.01,2013-02-20 11:01:00,
2013-02-20 06:16:00,13.9,10.8,30.25,WNW,284,6.0,13.0,87,0.00,,---,0.00,VWS V14.01,2013-02-20 11:16:00,
2013-02-20 06:31:00,14.2,10.8,30.26,West,271,12.0,18.0,86,0.00,,---,0.00,VWS V14.01,2013-02-20 11:31:00,
2013-02-20 06:46:00,14.2,10.8,30.26,West,279,8.0,13.0,86,0.00,,---,0.00,VWS V14.01,2013-02-20 11:46:00,
2013-02-20 07:01:00,14.4,11.0,30.26,West,270,6.0,14.0,86,0.00,,---,0.00,VWS V14.01,2013-02-20 12:01:00,
2013-02-20 07:16:00,14.5,11.1,30.26,NW,308,6.0,14.0,86,0.00,,---,0.00,VWS V14.01,2013-02-20 12:16:00,
2013-02-20 07:31:00,14.7,11.0,30.26,West,274,11.0,19.0,85,0.00,,---,0.00,VWS V14.01,2013-02-20 12:31:00,
2013-02-20 07:46:00,14.8,11.1,30.27,WNW,300,6.0,13.0,85,0.00,,---,0.00,VWS V14.01,2013-02-20 12:46:00,
2013-02-20 08:01:00,15.0,11.3,30.27,West,277,8.0,14.0,85,0.00,,---,0.00,VWS V14.01,2013-02-20 13:01:00,
2013-02-20 08:16:00,15.1,11.7,30.27,West,271,6.0,12.0,86,0.00,,---,0.00,VWS V14.01,2013-02-20 13:16:00,
2013-02-20 08:31:00,15.2,12.0,30.28,West,276,11.0,11.0,87,0.00,,---,0.00,VWS V14.01,2013-02-20 13:31:00,
2013-02-20 08:46:00,15.4,12.5,30.29,WNW,292,8.0,13.0,88,0.00,,---,0.00,VWS V14.01,2013-02-20 13:46:00,
2013-02-20 09:01:00,15.5,12.8,30.29,West,281,4.0,11.0,89,0.00,,---,0.00,VWS V14.01,2013-02-20 14:01:00,
2013-02-20 09:16:00,15.7,13.3,30.29,West,279,4.0,10.0,90,0.00,,---,0.00,VWS V14.01,2013-02-20 14:16:00,
2013-02-20 09:31:00,15.7,13.3,30.29,West,272,7.0,8.0,90,0.00,,---,0.00,VWS V14.01,2013-02-20 14:31:00,
2013-02-20 09:46:00,15.8,13.6,30.29,West,273,5.0,8.0,91,0.00,,---,0.00,VWS V14.01,2013-02-20 14:46:00,
2013-02-20 10:01:00,16.3,14.1,30.30,West,267,3.0,7.0,91,0.00,,---,0.00,VWS V14.01,2013-02-20 15:01:00,
2013-02-20 10:16:00,16.7,14.5,30.30,West,261,6.0,9.0,91,0.00,,---,0.00,VWS V14.01,2013-02-20 15:16:00,
2013-02-20 10:31:00,17.0,14.8,30.30,WNW,282,4.0,10.0,91,0.00,,---,0.00,VWS V14.01,2013-02-20 15:31:00,
2013-02-20 10:46:00,17.2,15.0,30.31,WSW,255,4.0,10.0,91,0.00,,---,0.00,VWS V14.01,2013-02-20 15:46:00,
2013-02-20 11:01:00,17.4,15.5,30.31,West,273,7.0,11.0,92,0.00,,---,0.00,VWS V14.01,2013-02-20 16:01:00,
2013-02-20 11:16:00,17.6,15.4,30.32,West,272,11.0,11.0,91,0.00,,---,0.00,VWS V14.01,2013-02-20 16:16:00,
2013-02-20 11:31:00,17.7,15.5,30.32,West,259,8.0,14.0,91,0.00,,---,0.00,VWS V14.01,2013-02-20 16:31:00,
2013-02-20 11:46:00,18.1,16.2,30.33,West,277,6.0,10.0,92,0.00,,---,0.00,VWS V14.01,2013-02-20 16:46:00,
2013-02-20 12:01:00,18.3,16.4,30.33,NW,315,10.0,12.0,92,0.00,,---,0.00,VWS V14.01,2013-02-20 17:01:00,
2013-02-20 12:16:00,18.3,16.1,30.33,West,268,5.0,13.0,91,0.00,,---,0.00,VWS V14.01,2013-02-20 17:16:00,
2013-02-20 12:31:00,18.5,16.3,30.33,West,270,9.0,12.0,91,0.00,,---,0.00,VWS V14.01,2013-02-20 17:31:00,
2013-02-20 12:46:00,18.7,16.5,30.33,West,275,8.0,12.0,91,0.00,,---,0.00,VWS V14.01,2013-02-20 17:46:00,
2013-02-20 13:01:00,19.0,16.8,30.33,WNW,282,6.0,12.0,91,0.00,,---,0.00,VWS V14.01,2013-02-20 18:01:00,
2013-02-20 13:16:00,19.1,17.2,30.33,WNW,298,8.0,13.0,92,0.00,,---,0.00,VWS V14.01,2013-02-20 18:16:00,
2013-02-20 13:31:00,19.4,17.2,30.33,West,271,7.0,12.0,91,0.00,,---,0.00,VWS V14.01,2013-02-20 18:31:00,
2013-02-20 13:46:00,19.7,17.8,30.32,WNW,300,9.0,11.0,92,0.00,,---,0.00,VWS V14.01,2013-02-20 18:46:00,
2013-02-20 14:01:00,19.5,17.3,30.32,West,281,8.0,13.0,91,0.00,,---,0.00,VWS V14.01,2013-02-20 19:01:00,
2013-02-20 14:16:00,19.7,17.8,30.33,WNW,294,6.0,13.0,92,0.00,,---,0.00,VWS V14.01,2013-02-20 19:16:00,
2013-02-20 14:31:00,19.4,17.5,30.34,WNW,288,8.0,13.0,92,0.00,,---,0.00,VWS V14.01,2013-02-20 19:31:00,
2013-02-20 14:46:00,19.4,17.5,30.36,WNW,296,9.0,14.0,92,0.00,,---,0.00,VWS V14.01,2013-02-20 19:46:00,
2013-02-20 15:01:00,19.8,17.6,30.37,West,269,6.0,15.0,91,0.00,,---,0.00,VWS V14.01,2013-02-20 20:01:00,
2013-02-20 15:16:00,20.1,17.6,30.37,WNW,298,7.0,18.0,90,0.00,,---,0.00,VWS V14.01,2013-02-20 20:16:00,
2013-02-20 15:31:00,20.5,17.0,30.37,WNW,284,6.0,13.0,86,0.00,,---,0.00,VWS V14.01,2013-02-20 20:31:00,
2013-02-20 15:46:00,20.6,16.8,30.36,West,279,7.0,13.0,85,0.00,,---,0.00,VWS V14.01,2013-02-20 20:46:00,
2013-02-20 16:01:00,20.3,16.8,30.36,West,265,8.0,14.0,86,0.00,,---,0.00,VWS V14.01,2013-02-20 21:01:00,
2013-02-20 16:16:00,19.8,17.1,30.36,WNW,288,7.0,13.0,89,0.00,,---,0.00,VWS V14.01,2013-02-20 21:16:00,
2013-02-20 16:31:00,19.5,16.8,30.36,West,267,9.0,15.0,89,0.00,,---,0.00,VWS V14.01,2013-02-20 21:31:00,
2013-02-20 16:46:00,19.4,16.7,30.36,WNW,288,4.0,13.0,89,0.00,,---,0.00,VWS V14.01,2013-02-20 21:46:00,
2013-02-20 17:01:00,19.4,16.7,30.35,WNW,282,4.0,10.0,89,0.00,,---,0.00,VWS V14.01,2013-02-20 22:01:00,
2013-02-20 17:16:00,19.6,16.9,30.35,West,273,5.0,10.0,89,0.00,,---,0.00,VWS V14.01,2013-02-20 22:16:00,
2013-02-20 17:31:00,19.8,16.8,30.36,WNW,287,5.0,9.0,88,0.00,,---,0.00,VWS V14.01,2013-02-20 22:31:00,
2013-02-20 17:46:00,19.8,16.6,30.36,WNW,285,3.0,10.0,87,0.00,,---,0.00,VWS V14.01,2013-02-20 22:46:00,
2013-02-20 18:01:00,19.9,16.7,30.36,NW,317,4.0,8.0,87,0.00,,---,0.00,VWS V14.01,2013-02-20 23:01:00,
2013-02-20 18:16:00,19.9,16.4,30.37,WNW,288,4.0,9.0,86,0.00,,---,0.00,VWS V14.01,2013-02-20 23:16:00,
2013-02-20 18:31:00,19.9,16.7,30.37,WNW,302,3.0,10.0,87,0.00,,---,0.00,VWS V14.01,2013-02-20 23:31:00,
2013-02-20 18:46:00,20.0,16.8,30.37,WNW,296,4.0,8.0,87,0.00,,---,0.00,VWS V14.01,2013-02-20 23:46:00,
2013-02-20 19:01:00,20.1,16.9,30.38,NW,309,2.0,8.0,87,0.00,,---,0.00,VWS V14.01,2013-02-21 00:01:00,
2013-02-20 19:16:00,20.2,17.0,30.38,WNW,294,1.0,7.0,87,0.00,,---,0.00,VWS V14.01,2013-02-21 00:16:00,
2013-02-20 19:31:00,20.2,17.2,30.39,WNW,300,3.0,6.0,88,0.00,,---,0.00,VWS V14.01,2013-02-21 00:31:00,
2013-02-20 19:46:00,20.3,17.3,30.39,NNW,346,0.0,6.0,88,0.00,,---,0.00,VWS V14.01,2013-02-21 00:46:00,
2013-02-20 20:01:00,20.6,17.1,30.38,North,350,1.0,11.0,86,0.00,,---,0.00,VWS V14.01,2013-02-21 01:01:00,
2013-02-20 20:16:00,20.9,16.8,30.38,NNW,332,2.0,8.0,84,0.00,,---,0.00,VWS V14.01,2013-02-21 01:16:00,
2013-02-20 20:31:00,20.8,17.0,30.38,North,11,3.0,7.0,85,0.00,,---,0.00,VWS V14.01,2013-02-21 01:31:00,
2013-02-20 20:46:00,20.7,17.2,30.39,NNW,341,2.0,6.0,86,0.00,,---,0.00,VWS V14.01,2013-02-21 01:46:00,
2013-02-20 21:01:00,20.5,17.5,30.38,NW,307,3.0,5.0,88,0.00,,---,0.00,VWS V14.01,2013-02-21 02:01:00,
2013-02-20 21:16:00,20.4,17.4,30.38,NW,319,3.0,4.0,88,0.00,,---,0.00,VWS V14.01,2013-02-21 02:16:00,
2013-02-20 21:31:00,20.4,17.7,30.38,NW,319,0.0,4.0,89,0.00,,---,0.00,VWS V14.01,2013-02-21 02:31:00,
2013-02-20 21:46:00,20.3,17.6,30.38,NW,319,1.0,3.0,89,0.00,,---,0.00,VWS V14.01,2013-02-21 02:46:00,
2013-02-20 22:01:00,20.3,17.6,30.38,NW,319,1.0,2.0,89,0.00,,---,0.00,VWS V14.01,2013-02-21 03:01:00,
2013-02-20 22:16:00,20.2,17.7,30.38,NW,319,1.0,2.0,90,0.00,,---,0.00,VWS V14.01,2013-02-21 03:16:00,
2013-02-20 22:31:00,20.2,17.7,30.38,NW,319,0.0,2.0,90,0.00,,---,0.00,VWS V14.01,2013-02-21 03:31:00,
2013-02-20 22:46:00,20.2,17.7,30.38,NW,319,0.0,2.0,90,0.00,,---,0.00,VWS V14.01,2013-02-21 03:46:00,
2013-02-20 23:01:00,20.2,17.7,30.39,NW,319,1.0,3.0,90,0.00,,---,0.00,VWS V14.01,2013-02-21 04:01:00,
2013-02-20 23:16:00,20.2,17.7,30.38,NW,311,1.0,4.0,90,0.00,,---,0.00,VWS V14.01,2013-02-21 04:16:00,
2013-02-20 23:31:00,20.0,17.8,30.38,NW,311,2.0,3.0,91,0.00,,---,0.00,VWS V14.01,2013-02-21 04:31:00,
2013-02-20 23:46:00,20.1,17.9,30.38,NW,311,1.0,3.0,91,0.00,,---,0.00,VWS V14.01,2013-02-21 04:46:00,